CheckWX is a tool to help pilots better visualize weather data.  It is not intended as a substitute for an official pre-flight weather briefing.

04:52:03 UTC

LFPN METAR
Toussus-le-Noble Airport
Toussus-le-Noble, France
Current

22 mins ago

LFPN 270430Z AUTO 04009KT 010V070 CAVOK 19/17 Q1023
Observed
Jun-27 @ 04:30 UTC
Wind
  • 040° at 9 KTS
Visibility
10,000+ meters
Flight Rules
VFR
Cloud Levels
  • Clear skies
Temperature
19°C / 66°F
Dewpoint
17°C / 63°F
Humidity
88%
Altimeter
30.21" Hg
Pressure
1022.92 hPa
Previous

52 mins ago

LFPN 270400Z AUTO 04008KT 010V080 CAVOK 19/17 Q1023
Observed
Jun-27 @ 04:00 UTC
Wind
  • 040° at 8 KTS
Visibility
10,000+ meters
Flight Rules
VFR
Cloud Levels
  • Clear skies
Temperature
19°C / 66°F
Dewpoint
17°C / 63°F
Humidity
88%
Altimeter
30.21" Hg
Pressure
1022.92 hPa
Previous

1 hour ago

LFPN 270330Z AUTO 05009KT 010V070 CAVOK 19/17 Q1023
Observed
Jun-27 @ 03:30 UTC
Wind
  • 050° at 9 KTS
Visibility
10,000+ meters
Flight Rules
VFR
Cloud Levels
  • Clear skies
Temperature
19°C / 66°F
Dewpoint
17°C / 63°F
Humidity
88%
Altimeter
30.21" Hg
Pressure
1022.92 hPa